Historyczne dane pomiarowe

Dodano dane terminowe – wersja testowa.

Dane z okresu 1951-2019

Wersja bazy: 1.34 [2019-03-16, lista zmian], aktualizacja planowana na 2019-04-15

Dane meteo z obszaru Polski uzyskane na podstawie danych udostępnionych przez Instytut Meteorologii i Gospodarki Wodnej – Państwowy Instytut Badawczy.

 

Wybierz Datę:    

       

TemperaturaWilgotnośćZachmurzenieWiatrCiśnienieWidzialnośćZjawiska
 Data    tng td wb rh cc ccl cl cm ch dir g1 g2 mslp ppp      
1999-08-10 00:00:00 17.4--- 16.6 16.995wxwxwx0wx--1006.4 984.7 0.0---wx
1999-08-10 01:00:00 16.6--- 15.6 16.094wxwx0wx--1006.7 984.9----wx
1999-08-10 02:00:00 16.0--- 15.2 15.595wxwx0wx--1007.0 985.2----wx
1999-08-10 03:00:00 15.4--- 14.7 15.096wxwx0wx--1007.8 985.9----wx
1999-08-10 04:00:00 15.0--- 14.5 14.797wxwx0wx--1007.9 986.0----wx
1999-08-10 05:00:00 17.2--- 16.6 16.896wxwxwx2wx--1008.0 986.2----wx
1999-08-10 06:00:00 19.4--- 16.8 17.785wxwxwx1wx--1008.1 986.5 0.0---wx
1999-08-10 07:00:00 22.0--- 16.6 18.571wxwxwx2wx--1008.3 986.9----wx
1999-08-10 08:00:00 22.8--- 15.6 18.264wxwxwxwx2wx--1008.3 986.9----wx
1999-08-10 09:00:00 25.0--- 14.4 18.352wxwxwxwxwx2wx--1008.3 987.1----wx
1999-08-10 10:00:00 25.9--- 15.1 19.051wxwxwxwxwx3wx--1008.0 986.9----wx
1999-08-10 11:00:00 25.6--- 15.7 19.254wxwxwxwxwx3wx--1008.0 986.8----wx
1999-08-10 12:00:00 26.2--- 16.2 19.754wxwxwxwxwx3wx--1007.5 986.4 0.0---wx
1999-08-10 13:00:00 25.2--- 16.6 19.659wxwxwx3wx--1007.7 986.5----wx
1999-08-10 14:00:00 17.3--- 15.5 16.289wxwxwx2wx--1009.0 987.2----wxw1
1999-08-10 15:00:00 18.3--- 17.1 17.592wxwxwx2wx--1008.9 987.2----wxw1
1999-08-10 16:00:00 18.0--- 16.7 17.292wxwxwx4wx--1009.3 987.6----wxw1
1999-08-10 17:00:00 17.6--- 16.7 17.094wxwxwx2wx--1009.8 988.0----wxw1
1999-08-10 18:00:00 17.2--- 16.4 16.795wxwxwx2wx--1008.8 987.0 21.5---wxw1
1999-08-10 19:00:00 17.1--- 16.5 16.796wxwxwx2wx--1009.2 987.4----wx
1999-08-10 20:00:00 17.1--- 16.5 16.796wxwxwx2wx--1008.9 987.1----wx
1999-08-10 21:00:00 16.8--- 16.2 16.496wxwxwx2wx--1008.7 986.9----wx
1999-08-10 22:00:00 16.8--- 16.2 16.496wxwxwx2wx--1008.4 986.6----wxw1
1999-08-10 23:00:00 15.6--- 14.6 15.094wxwxwx2wx--1008.4 986.5----wxw1

 

Źródłem pochodzenia danych jest Instytut Meteorologii i Gospodarki Wodnej – Państwowy Instytut Badawczy. Dane Instytutu Meteorologii i Gospodarki Wodnej – Państwowego Instytutu Badawczego zostały przetworzone.

Dane źródłowe można odnaleźć na stronie https://dane.imgw.pl